PWSweather.com
Personal Weather Stations
Station Observations
AC5JC
Greenleaf Peninsula, Waco, Waco, TX 76710

Greenleaf Peninsula, WacoWaco, TX 76710

Lat: 31.565, Lon: -97.198

Elevation: 570

Station Type: Ambient WS-1400IP

http://ac5jc.dyndns.org

Latest ConditionsUpdated 7:20:00 AM CDT Monday, May 27, 2019
Currently Today's Max Today's Min Today's Average
Temperature 74.1°F23.4°C 77.6°F25.3°C 73.3°F22.9°C 75.4°F24.1°C
Dew Point 71.9°F22.2°C 71.9°F22.2°C 67.0°F19.4°C 69.6°F20.9°C
Winds 3.7 mph SSE6.0 kmh SSE 12.6 mph -20.3 kmh - - 6.0 mph 9.7 kmh
Wind Gusts 7.6 mph12.2 kmh 27.5 mph44.3 kmh - -
Humidity 93% 93% 71% 83%
Pressure 29.95 in1014.2 mb 29.95 in1014.2 mb 29.88 in1011.9 mb -
Hour Temp Dew Point Humidity Winds Wind Gusts Pressure Precip Precip Rate Daily Precip Total
07:20 AM 74.1°F23.4°C 71.9°F22.2°C 93% 3.7 mph SSE6.0 kmh SSE 7.6 mph12.2 kmh 29.95 in1014.2 mb 0.00 in0.0 mm 0.00 in0.0 mm 0.00 in0.0 mm
07:15 AM 74.0°F23.3°C 71.8°F22.1°C 93% 5.6 mph SSE9.0 kmh SSE 7.6 mph12.2 kmh 29.95 in1014.2 mb 0.00 in0.0 mm 0.00 in0.0 mm 0.00 in0.0 mm
07:10 AM 73.8°F23.2°C 71.7°F22.1°C 93% 3.4 mph SSE5.5 kmh SSE 7.6 mph12.2 kmh 29.95 in1014.2 mb 0.00 in0.0 mm 0.00 in0.0 mm 0.00 in0.0 mm
07:05 AM 73.8°F23.2°C 71.6°F22.0°C 93% 3.2 mph S5.1 kmh S 7.6 mph12.2 kmh 29.94 in1013.9 mb 0.00 in0.0 mm 0.00 in0.0 mm 0.00 in0.0 mm
07:00 AM 73.8°F23.2°C 71.4°F21.9°C 92% 3.1 mph SSE5.0 kmh SSE 7.6 mph12.2 kmh 29.94 in1013.9 mb 0.00 in0.0 mm 0.00 in0.0 mm 0.00 in0.0 mm
06:55 AM 73.9°F23.3°C 71.4°F21.9°C 92% 2.5 mph S4.0 kmh S 7.6 mph12.2 kmh 29.94 in1013.9 mb 0.00 in0.0 mm 0.00 in0.0 mm 0.00 in0.0 mm
06:50 AM 73.9°F23.3°C 71.4°F21.9°C 92% 4.0 mph SSE6.4 kmh SSE 7.6 mph12.2 kmh 29.95 in1014.2 mb 0.00 in0.0 mm 0.00 in0.0 mm 0.00 in0.0 mm
06:45 AM 74.0°F23.3°C 71.5°F21.9°C 92% 2.8 mph SSE4.5 kmh SSE 7.6 mph12.2 kmh 29.94 in1013.9 mb 0.00 in0.0 mm 0.00 in0.0 mm 0.00 in0.0 mm
06:40 AM 74.0°F23.3°C 71.5°F21.9°C 92% 5.4 mph S8.7 kmh S 10.1 mph16.3 kmh 29.94 in1013.9 mb 0.00 in0.0 mm 0.00 in0.0 mm 0.00 in0.0 mm
06:35 AM 74.1°F23.4°C 71.6°F22.0°C 92% 4.2 mph SSE6.8 kmh SSE 10.1 mph16.3 kmh 29.94 in1013.9 mb 0.00 in0.0 mm 0.00 in0.0 mm 0.00 in0.0 mm
06:30 AM 74.1°F23.4°C 71.6°F22.0°C 92% 3.7 mph SE6.0 kmh SE 7.6 mph12.2 kmh 29.94 in1013.9 mb 0.00 in0.0 mm 0.00 in0.0 mm 0.00 in0.0 mm
06:25 AM 74.1°F23.4°C 71.6°F22.0°C 92% 3.5 mph SSE5.6 kmh SSE 7.6 mph12.2 kmh 29.93 in1013.5 mb 0.00 in0.0 mm 0.00 in0.0 mm 0.00 in0.0 mm
06:20 AM 74.0°F23.3°C 71.5°F21.9°C 92% 2.7 mph SSE4.3 kmh SSE 7.6 mph12.2 kmh 29.94 in1013.9 mb 0.00 in0.0 mm 0.00 in0.0 mm 0.00 in0.0 mm
06:15 AM 74.1°F23.4°C 71.6°F22.0°C 92% 2.6 mph S4.2 kmh S 4.9 mph7.9 kmh 29.93 in1013.5 mb 0.00 in0.0 mm 0.00 in0.0 mm 0.00 in0.0 mm
06:10 AM 74.1°F23.4°C 71.6°F22.0°C 92% 3.7 mph SSE6.0 kmh SSE 4.9 mph7.9 kmh 29.93 in1013.5 mb 0.00 in0.0 mm 0.00 in0.0 mm 0.00 in0.0 mm
06:05 AM 74.1°F23.4°C 71.6°F22.0°C 92% 4.1 mph S6.6 kmh S 10.1 mph16.3 kmh 29.93 in1013.5 mb 0.00 in0.0 mm 0.00 in0.0 mm 0.00 in0.0 mm
06:00 AM 74.0°F23.3°C 71.6°F22.0°C 92% 2.7 mph SSE4.3 kmh SSE 4.9 mph7.9 kmh 29.93 in1013.5 mb 0.00 in0.0 mm 0.00 in0.0 mm 0.00 in0.0 mm
05:55 AM 73.9°F23.3°C 71.4°F21.9°C 92% 2.0 mph SSE3.2 kmh SSE 7.6 mph12.2 kmh 29.93 in1013.5 mb 0.00 in0.0 mm 0.00 in0.0 mm 0.00 in0.0 mm
05:50 AM 73.9°F23.3°C 71.4°F21.9°C 92% 3.7 mph SE6.0 kmh SE 10.1 mph16.3 kmh 29.93 in1013.5 mb 0.00 in0.0 mm 0.00 in0.0 mm 0.00 in0.0 mm
05:45 AM 73.5°F23.1°C 71.0°F21.7°C 92% 2.8 mph S4.5 kmh S 4.9 mph7.9 kmh 29.93 in1013.5 mb 0.00 in0.0 mm 0.00 in0.0 mm 0.00 in0.0 mm
05:40 AM 73.4°F23.0°C 70.9°F21.6°C 92% 2.3 mph S3.7 kmh S 4.9 mph7.9 kmh 29.93 in1013.5 mb 0.00 in0.0 mm 0.00 in0.0 mm 0.00 in0.0 mm
05:35 AM 73.4°F23.0°C 70.9°F21.6°C 92% 1.9 mph S3.1 kmh S 4.9 mph7.9 kmh 29.93 in1013.5 mb 0.00 in0.0 mm 0.00 in0.0 mm 0.00 in0.0 mm
05:30 AM 73.4°F23.0°C 70.9°F21.6°C 92% 2.0 mph S3.2 kmh S 4.9 mph7.9 kmh 29.93 in1013.5 mb 0.00 in0.0 mm 0.00 in0.0 mm 0.00 in0.0 mm
05:25 AM 73.4°F23.0°C 70.9°F21.6°C 92% 4.8 mph SSE7.7 kmh SSE 7.6 mph12.2 kmh 29.93 in1013.5 mb 0.00 in0.0 mm 0.00 in0.0 mm 0.00 in0.0 mm
05:20 AM 73.3°F22.9°C 70.7°F21.5°C 92% 4.4 mph SSE7.1 kmh SSE 10.1 mph16.3 kmh 29.93 in1013.5 mb 0.00 in0.0 mm 0.00 in0.0 mm 0.00 in0.0 mm
05:15 AM 73.4°F23.0°C 70.7°F21.5°C 92% 2.4 mph S3.9 kmh S 4.9 mph7.9 kmh 29.93 in1013.5 mb 0.00 in0.0 mm 0.00 in0.0 mm 0.00 in0.0 mm
05:10 AM 73.4°F23.0°C 70.9°F21.6°C 92% 4.2 mph SSE6.8 kmh SSE 10.1 mph16.3 kmh 29.93 in1013.5 mb 0.00 in0.0 mm 0.00 in0.0 mm 0.00 in0.0 mm
05:05 AM 73.4°F23.0°C 70.6°F21.4°C 91% 3.5 mph SSE5.6 kmh SSE 4.9 mph7.9 kmh 29.92 in1013.2 mb 0.00 in0.0 mm 0.00 in0.0 mm 0.00 in0.0 mm
05:00 AM 73.6°F23.1°C 70.6°F21.4°C 90% 3.4 mph SSE5.5 kmh SSE 7.6 mph12.2 kmh 29.92 in1013.2 mb 0.00 in0.0 mm 0.00 in0.0 mm 0.00 in0.0 mm
04:55 AM 73.6°F23.1°C 70.5°F21.4°C 90% 3.4 mph S5.5 kmh S 4.9 mph7.9 kmh 29.92 in1013.2 mb 0.00 in0.0 mm 0.00 in0.0 mm 0.00 in0.0 mm
04:50 AM 73.8°F23.2°C 70.4°F21.3°C 89% 3.8 mph SSE6.1 kmh SSE 7.6 mph12.2 kmh 29.92 in1013.2 mb 0.00 in0.0 mm 0.00 in0.0 mm 0.00 in0.0 mm
04:45 AM 74.0°F23.3°C 70.5°F21.4°C 89% 1.7 mph SSE2.7 kmh SSE 7.6 mph12.2 kmh 29.93 in1013.5 mb 0.00 in0.0 mm 0.00 in0.0 mm 0.00 in0.0 mm
04:40 AM 74.0°F23.3°C 70.4°F21.3°C 89% 4.4 mph SSE7.1 kmh SSE 7.6 mph12.2 kmh 29.93 in1013.5 mb 0.00 in0.0 mm 0.00 in0.0 mm 0.00 in0.0 mm
04:35 AM 74.1°F23.4°C 70.3°F21.3°C 88% 1.6 mph S2.6 kmh S 2.5 mph4.0 kmh 29.93 in1013.5 mb 0.00 in0.0 mm 0.00 in0.0 mm 0.00 in0.0 mm
04:30 AM 74.4°F23.6°C 70.3°F21.3°C 87% 3.2 mph SSE5.1 kmh SSE 10.1 mph16.3 kmh 29.93 in1013.5 mb 0.00 in0.0 mm 0.00 in0.0 mm 0.00 in0.0 mm
04:25 AM 74.5°F23.6°C 70.4°F21.3°C 87% 5.2 mph SSE8.4 kmh SSE 10.1 mph16.3 kmh 29.93 in1013.5 mb 0.00 in0.0 mm 0.00 in0.0 mm 0.00 in0.0 mm
04:20 AM 74.7°F23.7°C 70.3°F21.3°C 86% 4.8 mph S7.7 kmh S 15.0 mph24.1 kmh 29.93 in1013.5 mb 0.00 in0.0 mm 0.00 in0.0 mm 0.00 in0.0 mm
04:15 AM 74.7°F23.7°C 70.2°F21.2°C 86% 4.6 mph SSE7.4 kmh SSE 10.1 mph16.3 kmh 29.93 in1013.5 mb 0.00 in0.0 mm 0.00 in0.0 mm 0.00 in0.0 mm
04:10 AM 74.7°F23.7°C 70.2°F21.2°C 86% 3.2 mph S5.1 kmh S 10.1 mph16.3 kmh 29.93 in1013.5 mb 0.00 in0.0 mm 0.00 in0.0 mm 0.00 in0.0 mm
04:05 AM 74.8°F23.8°C 70.0°F21.1°C 85% 2.6 mph S4.2 kmh S 4.9 mph7.9 kmh 29.93 in1013.5 mb 0.00 in0.0 mm 0.00 in0.0 mm 0.00 in0.0 mm
04:00 AM 75.2°F24.0°C 69.9°F21.1°C 84% 3.4 mph SSE5.5 kmh SSE 7.6 mph12.2 kmh 29.92 in1013.2 mb 0.00 in0.0 mm 0.00 in0.0 mm 0.00 in0.0 mm
03:55 AM 75.2°F24.0°C 69.7°F20.9°C 83% 7.6 mph S12.2 kmh S 15.0 mph24.1 kmh 29.93 in1013.5 mb 0.00 in0.0 mm 0.00 in0.0 mm 0.00 in0.0 mm
03:50 AM 75.4°F24.1°C 69.9°F21.1°C 83% 4.2 mph S6.8 kmh S 7.6 mph12.2 kmh 29.93 in1013.5 mb 0.00 in0.0 mm 0.00 in0.0 mm 0.00 in0.0 mm
03:45 AM 75.5°F24.2°C 69.6°F20.9°C 82% 6.4 mph SSE10.3 kmh SSE 17.4 mph28.0 kmh 29.93 in1013.5 mb 0.00 in0.0 mm 0.00 in0.0 mm 0.00 in0.0 mm
03:40 AM 75.7°F24.3°C 69.8°F21.0°C 82% 3.3 mph S5.3 kmh S 7.6 mph12.2 kmh 29.92 in1013.2 mb 0.00 in0.0 mm 0.00 in0.0 mm 0.00 in0.0 mm
03:35 AM 75.7°F24.3°C 69.8°F21.0°C 82% 2.9 mph S4.7 kmh S 7.6 mph12.2 kmh 29.93 in1013.5 mb 0.00 in0.0 mm 0.00 in0.0 mm 0.00 in0.0 mm
03:30 AM 75.7°F24.3°C 69.4°F20.8°C 81% 5.8 mph S9.3 kmh S 10.1 mph16.3 kmh 29.93 in1013.5 mb 0.00 in0.0 mm 0.00 in0.0 mm 0.00 in0.0 mm
03:25 AM 75.8°F24.3°C 69.6°F20.9°C 81% 6.1 mph SSE9.8 kmh SSE 17.4 mph28.0 kmh 29.93 in1013.5 mb 0.00 in0.0 mm 0.00 in0.0 mm 0.00 in0.0 mm
03:20 AM 75.9°F24.4°C 69.6°F20.9°C 81% 5.6 mph S9.0 kmh S 10.1 mph16.3 kmh 29.93 in1013.5 mb 0.00 in0.0 mm 0.00 in0.0 mm 0.00 in0.0 mm
03:15 AM 75.9°F24.4°C 69.5°F20.8°C 80% 6.8 mph S10.9 kmh S 15.0 mph24.1 kmh 29.93 in1013.5 mb 0.00 in0.0 mm 0.00 in0.0 mm 0.00 in0.0 mm
03:10 AM 75.9°F24.4°C 69.3°F20.7°C 80% 4.1 mph S6.6 kmh S 7.6 mph12.2 kmh 29.93 in1013.5 mb 0.00 in0.0 mm 0.00 in0.0 mm 0.00 in0.0 mm
03:05 AM 75.9°F24.4°C 69.1°F20.6°C 80% 5.0 mph SSE8.0 kmh SSE 15.0 mph24.1 kmh 29.93 in1013.5 mb 0.00 in0.0 mm 0.00 in0.0 mm 0.00 in0.0 mm
03:00 AM 76.0°F24.4°C 69.0°F20.6°C 79% 5.1 mph SSE8.2 kmh SSE 15.0 mph24.1 kmh 29.92 in1013.2 mb 0.00 in0.0 mm 0.00 in0.0 mm 0.00 in0.0 mm
02:55 AM 76.1°F24.5°C 69.1°F20.6°C 79% 7.6 mph SSE12.2 kmh SSE 17.4 mph28.0 kmh 29.92 in1013.2 mb 0.00 in0.0 mm 0.00 in0.0 mm 0.00 in0.0 mm
02:50 AM 76.0°F24.4°C 69.0°F20.6°C 79% 8.7 mph SSE14.0 kmh SSE 17.4 mph28.0 kmh 29.92 in1013.2 mb 0.00 in0.0 mm 0.00 in0.0 mm 0.00 in0.0 mm
02:45 AM 75.9°F24.4°C 68.6°F20.3°C 78% 8.1 mph S13.0 kmh S 12.5 mph20.1 kmh 29.92 in1013.2 mb 0.00 in0.0 mm 0.00 in0.0 mm 0.00 in0.0 mm
02:40 AM 75.9°F24.4°C 68.6°F20.3°C 78% 6.0 mph S9.7 kmh S 12.5 mph20.1 kmh 29.92 in1013.2 mb 0.00 in0.0 mm 0.00 in0.0 mm 0.00 in0.0 mm
02:35 AM 76.1°F24.5°C 68.6°F20.3°C 78% 5.2 mph S8.4 kmh S 12.5 mph20.1 kmh 29.92 in1013.2 mb 0.00 in0.0 mm 0.00 in0.0 mm 0.00 in0.0 mm
02:30 AM 76.3°F24.6°C 68.5°F20.3°C 77% 8.3 mph S13.4 kmh S 12.5 mph20.1 kmh 29.92 in1013.2 mb 0.00 in0.0 mm 0.00 in0.0 mm 0.00 in0.0 mm
02:25 AM 76.3°F24.6°C 68.4°F20.2°C 77% 6.6 mph SSE10.6 kmh SSE 12.5 mph20.1 kmh 29.93 in1013.5 mb 0.00 in0.0 mm 0.00 in0.0 mm 0.00 in0.0 mm
02:20 AM 76.5°F24.7°C 68.3°F20.2°C 76% 5.4 mph S8.7 kmh S 15.0 mph24.1 kmh 29.93 in1013.5 mb 0.00 in0.0 mm 0.00 in0.0 mm 0.00 in0.0 mm
02:15 AM 76.5°F24.7°C 68.1°F20.1°C 75% 5.9 mph S9.5 kmh S 12.5 mph20.1 kmh 29.93 in1013.5 mb 0.00 in0.0 mm 0.00 in0.0 mm 0.00 in0.0 mm
02:10 AM 76.5°F24.7°C 68.0°F20.0°C 75% 5.4 mph S8.7 kmh S 20.1 mph32.3 kmh 29.92 in1013.2 mb 0.00 in0.0 mm 0.00 in0.0 mm 0.00 in0.0 mm
02:05 AM 76.7°F24.8°C 67.9°F19.9°C 74% 9.0 mph S14.5 kmh S 15.0 mph24.1 kmh 29.91 in1012.9 mb 0.00 in0.0 mm 0.00 in0.0 mm 0.00 in0.0 mm
02:00 AM 76.8°F24.9°C 67.9°F19.9°C 74% 11.0 mph S17.7 kmh S 20.1 mph32.3 kmh 29.89 in1012.2 mb 0.00 in0.0 mm 0.00 in0.0 mm 0.00 in0.0 mm
01:55 AM 76.8°F24.9°C 67.8°F19.9°C 74% 10.3 mph SSE16.6 kmh SSE 20.1 mph32.3 kmh 29.89 in1012.2 mb 0.00 in0.0 mm 0.00 in0.0 mm 0.00 in0.0 mm
01:50 AM 76.9°F24.9°C 67.7°F19.8°C 73% 8.7 mph SSE14.0 kmh SSE 12.5 mph20.1 kmh 29.88 in1011.9 mb 0.00 in0.0 mm 0.00 in0.0 mm 0.00 in0.0 mm
01:45 AM 77.0°F25.0°C 67.7°F19.8°C 73% 12.6 mph SSE20.3 kmh SSE 17.4 mph28.0 kmh 29.89 in1012.2 mb 0.00 in0.0 mm 0.00 in0.0 mm 0.00 in0.0 mm
01:40 AM 77.0°F25.0°C 67.7°F19.8°C 73% 10.3 mph SE16.6 kmh SE 17.4 mph28.0 kmh 29.89 in1012.2 mb 0.00 in0.0 mm 0.00 in0.0 mm 0.00 in0.0 mm
01:35 AM 77.2°F25.1°C 67.8°F19.9°C 73% 8.1 mph S13.0 kmh S 15.0 mph24.1 kmh 29.90 in1012.5 mb 0.00 in0.0 mm 0.00 in0.0 mm 0.00 in0.0 mm
01:30 AM 77.2°F25.1°C 67.9°F19.9°C 73% 9.7 mph SSE15.6 kmh SSE 17.4 mph28.0 kmh 29.90 in1012.5 mb 0.00 in0.0 mm 0.00 in0.0 mm 0.00 in0.0 mm
01:25 AM 77.2°F25.1°C 67.9°F19.9°C 73% 9.9 mph S15.9 kmh S 17.4 mph28.0 kmh 29.89 in1012.2 mb 0.00 in0.0 mm 0.00 in0.0 mm 0.00 in0.0 mm
01:20 AM 77.2°F25.1°C 67.9°F19.9°C 73% 11.0 mph S17.7 kmh S 20.1 mph32.3 kmh 29.89 in1012.2 mb 0.00 in0.0 mm 0.00 in0.0 mm 0.00 in0.0 mm
01:15 AM 77.2°F25.1°C 67.9°F19.9°C 73% 12.5 mph S20.1 kmh S 27.5 mph44.3 kmh 29.89 in1012.2 mb 0.00 in0.0 mm 0.00 in0.0 mm 0.00 in0.0 mm
01:10 AM 77.2°F25.1°C 67.9°F19.9°C 73% 12.6 mph S20.3 kmh S 20.1 mph32.3 kmh 29.90 in1012.5 mb 0.00 in0.0 mm 0.00 in0.0 mm 0.00 in0.0 mm
01:05 AM 77.2°F25.1°C 67.9°F19.9°C 73% 8.9 mph S14.3 kmh S 15.0 mph24.1 kmh 29.90 in1012.5 mb 0.00 in0.0 mm 0.00 in0.0 mm 0.00 in0.0 mm
01:00 AM 77.2°F25.1°C 67.7°F19.8°C 72% 9.2 mph SE14.8 kmh SE 22.6 mph36.4 kmh 29.90 in1012.5 mb 0.00 in0.0 mm 0.00 in0.0 mm 0.00 in0.0 mm
12:55 AM 77.2°F25.1°C 67.5°F19.7°C 72% 10.1 mph S16.3 kmh S 22.6 mph36.4 kmh 29.90 in1012.5 mb 0.00 in0.0 mm 0.00 in0.0 mm 0.00 in0.0 mm
12:50 AM 77.2°F25.1°C 67.5°F19.7°C 72% 10.3 mph S16.6 kmh S 17.4 mph28.0 kmh 29.92 in1013.2 mb 0.00 in0.0 mm 0.00 in0.0 mm 0.00 in0.0 mm
12:45 AM 77.2°F25.1°C 67.5°F19.7°C 72% 9.7 mph SSE15.6 kmh SSE 15.0 mph24.1 kmh 29.92 in1013.2 mb 0.00 in0.0 mm 0.00 in0.0 mm 0.00 in0.0 mm
12:40 AM 77.2°F25.1°C 67.5°F19.7°C 72% 7.1 mph S11.4 kmh S 15.0 mph24.1 kmh 29.92 in1013.2 mb 0.00 in0.0 mm 0.00 in0.0 mm 0.00 in0.0 mm
12:35 AM 77.2°F25.1°C 67.5°F19.7°C 72% 10.6 mph S17.1 kmh S 20.1 mph32.3 kmh 29.91 in1012.9 mb 0.00 in0.0 mm 0.00 in0.0 mm 0.00 in0.0 mm
12:30 AM 77.2°F25.1°C 67.5°F19.7°C 72% 11.0 mph S17.7 kmh S 22.6 mph36.4 kmh 29.91 in1012.9 mb 0.00 in0.0 mm 0.00 in0.0 mm 0.00 in0.0 mm
12:25 AM 77.2°F25.1°C 67.3°F19.6°C 72% 8.8 mph S14.2 kmh S 17.4 mph28.0 kmh 29.91 in1012.9 mb 0.00 in0.0 mm 0.00 in0.0 mm 0.00 in0.0 mm
12:20 AM 77.2°F25.1°C 67.0°F19.4°C 71% 11.1 mph SSE17.9 kmh SSE 17.4 mph28.0 kmh 29.91 in1012.9 mb 0.00 in0.0 mm 0.00 in0.0 mm 0.00 in0.0 mm
12:15 AM 77.2°F25.1°C 67.0°F19.4°C 71% 11.1 mph S17.9 kmh S 20.1 mph32.3 kmh 29.91 in1012.9 mb 0.00 in0.0 mm 0.00 in0.0 mm 0.00 in0.0 mm
12:10 AM 77.5°F25.3°C 67.3°F19.6°C 71% 12.2 mph S19.6 kmh S 20.1 mph32.3 kmh 29.90 in1012.5 mb 0.00 in0.0 mm 0.00 in0.0 mm 0.00 in0.0 mm
12:05 AM 77.6°F25.3°C 67.5°F19.7°C 71% 11.6 mph SSE18.7 kmh SSE 17.4 mph28.0 kmh 29.90 in1012.5 mb 0.00 in0.0 mm 0.00 in0.0 mm 0.00 in0.0 mm